Al Hudaydah, Yemen
Current Conditions -  °F | °C
As of 3:00 AM on Thursday 27 Nov 2014 (Local Time) from OYHD Reporting Station
Scattered Clouds Scattered Clouds  
Wind Chill: 81°   Ceiling: Unl
Heat Index: 87°   Visibility: 4mi
Dew Point: 77°   Wind: 5mph
Humidity: 89%   Direction: 120°ESE
Pressure: 29.85"   Gusts: NA
Location:  14.8°N, 42.95°E
Report Text: OYHD 270000Z 12004KT 7000 SCT030 27/25 Q1011
Loading
Personal Weather Stations






























Interactive Weather Map New forecast layout! Learn more

10-Day Weather Forecast

Advertisements
Track Severe Weather on mobile